createdAt,value
2023-05-07T00:01:46.827Z,14.00
2023-05-07T00:04:15.401Z,14.00
2023-05-07T00:06:44.258Z,14.00
2023-05-07T00:09:21.139Z,13.90
2023-05-07T00:11:59.025Z,13.90
2023-05-07T00:14:27.803Z,14.00
2023-05-07T00:17:01.108Z,14.00
2023-05-07T00:19:29.727Z,14.00
2023-05-07T00:22:00.326Z,13.90
2023-05-07T00:24:28.823Z,14.00
2023-05-07T00:26:59.879Z,14.10
2023-05-07T00:29:28.803Z,14.10
2023-05-07T00:31:57.218Z,14.10
2023-05-07T00:34:26.963Z,14.10
2023-05-07T00:36:55.876Z,14.00
2023-05-07T00:39:23.050Z,13.90
2023-05-07T00:41:53.989Z,13.90
2023-05-07T00:44:24.962Z,13.90
2023-05-07T00:46:54.607Z,14.00
2023-05-07T00:49:30.672Z,13.90
2023-05-07T00:52:07.054Z,13.90
2023-05-07T00:54:36.734Z,13.90
2023-05-07T00:57:13.084Z,13.90
2023-05-07T00:59:46.237Z,13.80
2023-05-07T01:02:19.288Z,13.80
2023-05-07T01:04:48.485Z,13.80
2023-05-07T01:07:18.539Z,13.80
2023-05-07T01:09:48.658Z,13.80
2023-05-07T01:12:17.943Z,13.80
2023-05-07T01:14:45.751Z,13.80
2023-05-07T01:17:17.708Z,13.80
2023-05-07T01:19:47.609Z,13.80
2023-05-07T01:22:42.025Z,13.70
2023-05-07T01:25:19.477Z,13.60
2023-05-07T01:27:47.214Z,13.50
2023-05-07T01:30:15.789Z,13.70
2023-05-07T01:33:09.259Z,13.50
2023-05-07T01:35:49.732Z,13.40
2023-05-07T01:38:19.833Z,13.40
2023-05-07T01:40:50.387Z,13.40
2023-05-07T01:43:20.131Z,13.40
2023-05-07T01:45:54.350Z,13.50
2023-05-07T01:48:22.939Z,13.30
2023-05-07T01:51:01.554Z,13.10
2023-05-07T01:53:38.385Z,13.10
2023-05-07T01:56:07.417Z,13.30
2023-05-07T01:58:35.692Z,13.30
2023-05-07T02:01:05.227Z,13.20
2023-05-07T02:03:36.031Z,13.10
2023-05-07T02:06:05.754Z,13.10
2023-05-07T02:08:35.546Z,13.10
2023-05-07T02:11:05.993Z,13.10
2023-05-07T02:13:38.095Z,13.30
2023-05-07T02:16:08.333Z,13.20
2023-05-07T02:18:45.898Z,13.30
2023-05-07T02:21:16.310Z,13.30
2023-05-07T02:23:45.304Z,13.10
2023-05-07T02:26:13.777Z,13.20
2023-05-07T02:28:47.941Z,13.00
2023-05-07T02:31:25.774Z,12.80
2023-05-07T02:33:53.876Z,12.80
2023-05-07T02:36:22.216Z,12.70
2023-05-07T02:38:51.880Z,12.70
2023-05-07T02:41:27.349Z,12.70
2023-05-07T02:44:04.691Z,12.90
2023-05-07T02:46:36.959Z,12.90
2023-05-07T02:49:04.178Z,12.70
2023-05-07T02:51:33.090Z,12.60
2023-05-07T02:54:04.616Z,12.60
2023-05-07T02:56:33.928Z,12.60
2023-05-07T02:59:10.058Z,12.40
2023-05-07T03:01:37.824Z,12.60
2023-05-07T03:04:06.747Z,12.60
2023-05-07T03:06:35.994Z,12.40
2023-05-07T03:09:05.858Z,12.20
2023-05-07T03:11:34.939Z,12.20
2023-05-07T03:16:47.837Z,12.60
2023-05-07T03:19:25.226Z,12.40
2023-05-07T03:21:56.022Z,12.30
2023-05-07T03:24:25.602Z,12.30
2023-05-07T03:27:01.176Z,12.40
2023-05-07T03:29:32.026Z,12.40
2023-05-07T03:32:02.830Z,12.40
2023-05-07T03:34:39.750Z,12.30
2023-05-07T03:37:16.677Z,12.30
2023-05-07T03:39:52.815Z,12.20
2023-05-07T03:42:29.467Z,12.20
2023-05-07T03:44:58.790Z,12.20
2023-05-07T03:47:27.443Z,12.20
2023-05-07T03:49:57.096Z,12.10
2023-05-07T03:52:38.127Z,12.20
2023-05-07T03:55:10.454Z,12.30
2023-05-07T03:57:38.969Z,12.40
2023-05-07T04:00:09.522Z,12.50
2023-05-07T04:02:47.263Z,12.50
2023-05-07T04:05:18.854Z,12.60
2023-05-07T04:07:49.009Z,12.60
2023-05-07T04:10:20.494Z,12.70
2023-05-07T04:12:53.580Z,12.80
2023-05-07T04:15:30.690Z,12.70
2023-05-07T04:17:59.442Z,12.50
2023-05-07T04:20:36.497Z,12.30
2023-05-07T04:23:06.628Z,12.10
2023-05-07T04:25:42.729Z,12.30
2023-05-07T04:28:19.717Z,12.40
2023-05-07T04:30:47.612Z,12.40
2023-05-07T04:33:27.533Z,12.50
2023-05-07T04:35:58.733Z,12.50
2023-05-07T04:38:29.327Z,12.50
2023-05-07T04:40:58.454Z,12.60
2023-05-07T04:43:26.774Z,12.50
2023-05-07T04:45:56.996Z,12.40
2023-05-07T04:48:28.991Z,12.40
2023-05-07T04:51:05.806Z,12.40
2023-05-07T04:53:43.187Z,12.30
2023-05-07T04:56:10.375Z,12.30
2023-05-07T04:58:40.955Z,12.30
2023-05-07T05:01:11.867Z,12.50
2023-05-07T05:03:42.561Z,12.60
2023-05-07T05:06:14.697Z,12.80
2023-05-07T05:08:43.054Z,12.90
2023-05-07T05:11:10.953Z,13.20
2023-05-07T05:13:39.138Z,13.50
2023-05-07T05:16:09.543Z,13.60
2023-05-07T05:18:43.205Z,13.70
2023-05-07T05:21:19.850Z,13.50
2023-05-07T05:23:51.098Z,13.70
2023-05-07T05:26:19.794Z,13.90
2023-05-07T05:28:48.396Z,14.00
2023-05-07T05:31:26.780Z,13.90
2023-05-07T05:33:55.777Z,13.80
2023-05-07T05:36:26.251Z,13.70
2023-05-07T05:38:53.393Z,13.60
2023-05-07T05:41:29.471Z,13.80
2023-05-07T05:43:58.731Z,13.80
2023-05-07T05:46:28.702Z,13.80
2023-05-07T05:48:57.995Z,13.70
2023-05-07T05:51:34.875Z,13.60
2023-05-07T05:54:06.185Z,13.60
2023-05-07T05:56:36.789Z,13.60
2023-05-07T05:59:07.495Z,13.60
2023-05-07T06:01:42.281Z,13.60
2023-05-07T06:04:12.750Z,13.50
2023-05-07T06:06:42.912Z,13.70
2023-05-07T06:09:13.893Z,13.80
2023-05-07T06:11:43.880Z,14.10
2023-05-07T06:14:12.711Z,14.50
2023-05-07T06:19:35.250Z,14.80
2023-05-07T06:22:05.456Z,15.20
2023-05-07T06:24:34.339Z,15.50
2023-05-07T06:27:08.117Z,15.70
2023-05-07T06:29:40.691Z,15.90
2023-05-07T06:32:23.409Z,16.20
2023-05-07T06:34:54.622Z,16.20
2023-05-07T06:37:26.370Z,16.20
2023-05-07T06:39:59.899Z,16.20
2023-05-07T06:42:40.197Z,16.20
2023-05-07T06:45:13.225Z,16.20
2023-05-07T06:47:42.713Z,16.40
2023-05-07T06:50:21.503Z,16.50
2023-05-07T06:52:58.078Z,16.80
2023-05-07T06:55:28.004Z,16.70
2023-05-07T06:58:02.270Z,17.00
2023-05-07T07:00:38.395Z,17.00
2023-05-07T07:03:09.888Z,17.00
2023-05-07T07:05:39.594Z,16.90
2023-05-07T07:08:08.116Z,16.90
2023-05-07T07:10:40.523Z,16.90
2023-05-07T07:13:19.800Z,16.90
2023-05-07T07:15:48.055Z,16.90
2023-05-07T07:18:16.621Z,17.20
2023-05-07T07:20:53.775Z,17.40
2023-05-07T07:23:21.581Z,17.50
2023-05-07T07:25:50.214Z,17.50
2023-05-07T07:28:23.270Z,17.00
2023-05-07T07:30:59.866Z,16.90
2023-05-07T07:33:29.385Z,17.20
2023-05-07T07:36:07.155Z,17.20
2023-05-07T07:38:36.457Z,17.50
2023-05-07T07:41:06.734Z,17.90
2023-05-07T07:43:35.970Z,17.90
2023-05-07T07:46:04.975Z,18.00
2023-05-07T07:48:35.335Z,17.90
2023-05-07T07:51:02.549Z,17.60
2023-05-07T07:53:32.246Z,17.40
2023-05-07T07:56:10.457Z,17.40
2023-05-07T07:58:39.325Z,17.20
2023-05-07T08:01:08.790Z,17.20
2023-05-07T08:03:44.719Z,17.30
2023-05-07T08:06:16.299Z,17.50
2023-05-07T08:08:45.688Z,18.00
2023-05-07T08:11:14.032Z,18.60
2023-05-07T08:13:42.649Z,18.40
2023-05-07T08:16:13.735Z,19.00
2023-05-07T08:18:47.424Z,19.20
2023-05-07T08:21:15.079Z,18.90
2023-05-07T08:23:45.905Z,18.80
2023-05-07T08:26:15.825Z,19.20
2023-05-07T08:28:46.781Z,18.70
2023-05-07T08:31:17.684Z,18.60
2023-05-07T08:33:48.503Z,18.60
2023-05-07T08:36:26.578Z,18.60
2023-05-07T08:38:57.233Z,19.10
2023-05-07T08:41:27.491Z,19.60
2023-05-07T08:44:06.229Z,19.20
2023-05-07T08:46:37.613Z,19.10
2023-05-07T08:49:13.210Z,19.20
2023-05-07T08:51:58.146Z,19.40
2023-05-07T08:54:27.357Z,19.50
2023-05-07T08:56:58.609Z,19.90
2023-05-07T08:59:30.061Z,19.80
2023-05-07T09:01:59.876Z,19.40
2023-05-07T09:04:34.416Z,19.10
2023-05-07T09:07:06.794Z,19.10
2023-05-07T09:09:35.330Z,19.90
2023-05-07T09:12:04.887Z,19.90
2023-05-07T09:14:34.367Z,19.60
2023-05-07T09:17:10.814Z,19.80
2023-05-07T09:19:51.177Z,20.00
2023-05-07T09:22:21.433Z,20.30
2023-05-07T09:24:55.840Z,20.30
2023-05-07T09:27:33.423Z,20.30
2023-05-07T09:30:08.576Z,20.10
2023-05-07T09:32:40.407Z,19.70
2023-05-07T09:35:17.415Z,20.00
2023-05-07T09:37:50.164Z,20.00
2023-05-07T09:40:30.557Z,19.80
2023-05-07T09:43:12.946Z,19.80
2023-05-07T09:45:46.767Z,19.80
2023-05-07T09:48:19.892Z,20.10
2023-05-07T09:50:53.489Z,19.60
2023-05-07T09:53:23.160Z,19.70
2023-05-07T09:55:53.648Z,19.60
2023-05-07T09:58:24.022Z,19.60
2023-05-07T10:00:54.056Z,19.70
2023-05-07T10:03:44.500Z,19.60
2023-05-07T10:06:14.657Z,19.50
2023-05-07T10:08:45.617Z,19.10
2023-05-07T10:11:17.718Z,19.40
2023-05-07T10:13:48.322Z,19.60
2023-05-07T10:16:17.205Z,20.00
2023-05-07T10:18:48.472Z,20.40
2023-05-07T10:21:26.943Z,20.70
2023-05-07T10:24:20.273Z,20.00
2023-05-07T10:26:54.898Z,19.80
2023-05-07T10:30:17.830Z,19.90
2023-05-07T10:32:59.802Z,19.90
2023-05-07T10:35:43.300Z,19.40
2023-05-07T10:38:20.539Z,19.20
2023-05-07T10:40:49.985Z,19.60
2023-05-07T10:43:24.356Z,19.80
2023-05-07T10:46:16.706Z,19.60
2023-05-07T10:49:13.567Z,20.20
2023-05-07T10:51:42.811Z,20.50
2023-05-07T10:54:22.916Z,19.80
2023-05-07T10:56:55.081Z,19.30
2023-05-07T10:59:46.493Z,19.20
2023-05-07T11:02:16.978Z,19.00
2023-05-07T11:04:46.782Z,19.40
2023-05-07T11:07:33.545Z,19.30
2023-05-07T11:10:07.038Z,19.50
2023-05-07T11:12:59.155Z,19.40
2023-05-07T11:15:45.495Z,19.40
2023-05-07T11:18:17.649Z,19.40
2023-05-07T11:21:11.630Z,19.60
2023-05-07T11:23:58.702Z,19.80
2023-05-07T11:26:34.027Z,20.20
2023-05-07T11:29:10.877Z,20.20
2023-05-07T11:31:41.269Z,20.30
2023-05-07T11:34:11.194Z,20.20
2023-05-07T11:36:47.894Z,20.50
2023-05-07T11:39:38.002Z,20.70
2023-05-07T11:42:09.147Z,20.80
2023-05-07T11:44:48.012Z,21.10
2023-05-07T11:47:23.259Z,20.60
2023-05-07T11:49:58.753Z,20.30
2023-05-07T11:52:27.092Z,20.50
2023-05-07T11:55:07.971Z,21.30
2023-05-07T11:57:35.849Z,21.80
2023-05-07T12:00:09.527Z,21.50
2023-05-07T12:02:42.592Z,21.20
2023-05-07T12:05:11.625Z,21.50
2023-05-07T12:07:46.083Z,21.70
2023-05-07T12:10:15.163Z,21.50
2023-05-07T12:12:49.217Z,21.50
2023-05-07T12:15:30.264Z,21.50
2023-05-07T12:18:00.916Z,21.70
2023-05-07T12:20:31.273Z,22.00
2023-05-07T12:23:00.048Z,21.80
2023-05-07T12:25:50.642Z,21.80
2023-05-07T12:28:29.255Z,21.60
2023-05-07T12:31:00.031Z,21.50
2023-05-07T12:34:03.452Z,20.70
2023-05-07T12:36:44.166Z,20.50
2023-05-07T12:39:13.046Z,20.60
2023-05-07T12:42:01.072Z,20.70
2023-05-07T12:44:35.057Z,20.80
2023-05-07T12:47:08.596Z,20.80
2023-05-07T12:49:40.491Z,20.50
2023-05-07T12:52:08.813Z,20.30
2023-05-07T12:54:42.692Z,20.10
2023-05-07T12:57:11.729Z,20.10
2023-05-07T12:59:46.432Z,19.90
2023-05-07T13:02:15.957Z,19.90
2023-05-07T13:04:46.013Z,19.80
2023-05-07T13:07:16.454Z,19.60
2023-05-07T13:09:47.052Z,19.50
2023-05-07T13:12:17.529Z,19.30
2023-05-07T13:14:46.204Z,19.20
2023-05-07T13:17:15.179Z,19.20
2023-05-07T13:19:44.355Z,18.90
2023-05-07T13:22:13.148Z,18.60
2023-05-07T13:24:54.919Z,18.30
2023-05-07T13:27:23.492Z,18.10
2023-05-07T13:29:51.218Z,17.70
2023-05-07T13:32:27.865Z,17.20
2023-05-07T13:34:57.039Z,16.70
2023-05-07T13:37:33.159Z,16.60
2023-05-07T13:40:02.625Z,16.40
2023-05-07T13:42:35.211Z,16.10
2023-05-07T13:45:07.079Z,15.90
2023-05-07T13:47:40.063Z,15.70
2023-05-07T13:50:11.701Z,15.70
2023-05-07T13:52:55.277Z,15.60
2023-05-07T13:55:25.220Z,15.50
2023-05-07T13:58:07.799Z,15.50
2023-05-07T14:00:44.064Z,15.50
2023-05-07T14:03:13.694Z,15.40
2023-05-07T14:05:44.698Z,15.30
2023-05-07T14:08:16.565Z,15.20
2023-05-07T14:10:46.624Z,15.10
2023-05-07T14:13:20.418Z,15.00
2023-05-07T14:15:51.497Z,14.80
2023-05-07T14:18:24.695Z,14.70
2023-05-07T14:23:35.459Z,14.70
2023-05-07T14:26:04.553Z,14.70
2023-05-07T14:28:34.226Z,14.70
2023-05-07T14:31:04.562Z,14.70
2023-05-07T14:33:42.330Z,14.70
2023-05-07T14:36:19.284Z,14.70
2023-05-07T14:38:49.494Z,14.70
2023-05-07T14:41:18.467Z,14.70
2023-05-07T14:43:56.645Z,14.80
2023-05-07T14:46:26.638Z,14.80
2023-05-07T14:48:56.312Z,14.80
2023-05-07T14:51:25.398Z,14.70
2023-05-07T14:53:53.651Z,14.80
2023-05-07T14:56:25.804Z,14.70
2023-05-07T14:59:04.775Z,14.70
2023-05-07T15:01:34.438Z,14.60
2023-05-07T15:04:07.529Z,14.50
2023-05-07T15:06:37.922Z,14.60
2023-05-07T15:09:05.266Z,14.60
2023-05-07T15:11:36.450Z,14.70
2023-05-07T15:14:12.716Z,14.70
2023-05-07T15:16:43.246Z,14.70
2023-05-07T15:19:19.686Z,14.70
2023-05-07T15:21:52.572Z,14.70
2023-05-07T15:24:21.901Z,14.80
2023-05-07T15:26:58.579Z,14.80
2023-05-07T15:29:28.748Z,14.80
2023-05-07T15:31:58.108Z,14.80
2023-05-07T15:34:32.806Z,14.90
2023-05-07T15:37:01.484Z,15.00
2023-05-07T15:39:31.419Z,15.10
2023-05-07T15:41:59.915Z,15.20
2023-05-07T15:44:42.626Z,15.40
2023-05-07T15:47:11.167Z,15.40
2023-05-07T15:49:42.275Z,15.40
2023-05-07T15:52:21.146Z,15.50
2023-05-07T15:54:49.904Z,15.50
2023-05-07T15:57:20.662Z,15.40
2023-05-07T15:59:56.929Z,15.50
2023-05-07T16:02:26.007Z,15.40
2023-05-07T16:05:02.294Z,15.40
2023-05-07T16:07:35.577Z,15.40
2023-05-07T16:10:13.585Z,15.40
2023-05-07T16:12:50.737Z,15.40
2023-05-07T16:15:28.937Z,15.50
2023-05-07T16:18:02.189Z,15.50
2023-05-07T16:20:34.472Z,15.50
2023-05-07T16:23:05.340Z,15.60
2023-05-07T16:25:33.841Z,15.60
2023-05-07T16:28:04.288Z,15.60
2023-05-07T16:30:34.276Z,15.60
2023-05-07T16:33:08.695Z,15.70
2023-05-07T16:35:37.166Z,15.70
2023-05-07T16:38:11.131Z,15.70
2023-05-07T16:40:42.619Z,15.80
2023-05-07T16:43:13.335Z,15.80
2023-05-07T16:45:45.078Z,15.90
2023-05-07T16:48:13.308Z,15.70
2023-05-07T16:50:44.864Z,15.60
2023-05-07T16:53:15.479Z,15.60
2023-05-07T16:55:45.992Z,15.70
2023-05-07T16:58:21.527Z,15.70
2023-05-07T17:00:52.157Z,15.70
2023-05-07T17:03:23.411Z,15.70
2023-05-07T17:06:01.308Z,15.70
2023-05-07T17:08:35.284Z,15.70
2023-05-07T17:11:05.107Z,15.80
2023-05-07T17:13:33.601Z,15.80
2023-05-07T17:16:02.969Z,15.70
2023-05-07T17:18:41.660Z,15.70
2023-05-07T17:21:09.450Z,15.70
2023-05-07T17:23:44.945Z,15.80
2023-05-07T17:26:18.624Z,15.80
2023-05-07T17:28:48.133Z,15.80
2023-05-07T17:31:18.945Z,15.80
2023-05-07T17:33:49.361Z,15.70
2023-05-07T17:36:19.168Z,15.70
2023-05-07T17:39:01.697Z,15.60
2023-05-07T17:41:31.180Z,15.70
2023-05-07T17:44:03.573Z,15.60
2023-05-07T17:46:32.175Z,15.50
2023-05-07T17:49:07.348Z,15.50
2023-05-07T17:51:46.273Z,15.50
2023-05-07T17:54:29.421Z,15.40
2023-05-07T17:56:58.329Z,15.40
2023-05-07T17:59:29.189Z,15.40
2023-05-07T18:02:02.236Z,15.40
2023-05-07T18:04:30.314Z,15.50
2023-05-07T18:06:58.919Z,15.50
2023-05-07T18:09:30.473Z,15.30
2023-05-07T18:11:59.110Z,15.20
2023-05-07T18:14:27.626Z,15.20
2023-05-07T18:16:54.814Z,15.30
2023-05-07T18:19:24.095Z,15.40
2023-05-07T18:21:56.975Z,15.30
2023-05-07T18:24:30.859Z,15.40
2023-05-07T18:27:01.844Z,15.40
2023-05-07T18:29:30.309Z,15.40
2023-05-07T18:32:02.257Z,15.40
2023-05-07T18:34:32.776Z,15.40
2023-05-07T18:37:09.520Z,15.30
2023-05-07T18:39:39.711Z,15.30
2023-05-07T18:42:10.575Z,15.20
2023-05-07T18:44:41.965Z,15.20
2023-05-07T18:47:13.921Z,15.10
2023-05-07T18:49:43.477Z,15.10
2023-05-07T18:52:11.706Z,15.10
2023-05-07T18:54:49.542Z,15.10
2023-05-07T18:57:17.723Z,15.20
2023-05-07T18:59:48.764Z,15.20
2023-05-07T19:02:19.369Z,15.10
2023-05-07T19:04:58.068Z,15.10
2023-05-07T19:07:26.750Z,15.00
2023-05-07T19:10:04.929Z,15.10
2023-05-07T19:12:35.720Z,15.00
2023-05-07T19:15:12.897Z,14.80
2023-05-07T19:17:46.438Z,14.70
2023-05-07T19:20:16.821Z,14.70
2023-05-07T19:22:53.308Z,14.80
2023-05-07T19:25:23.755Z,14.70
2023-05-07T19:27:52.282Z,14.70
2023-05-07T19:30:22.367Z,14.70
2023-05-07T19:32:58.981Z,14.70
2023-05-07T19:35:28.294Z,14.80
2023-05-07T19:37:57.462Z,14.80
2023-05-07T19:40:27.062Z,14.80
2023-05-07T19:42:57.152Z,15.00
2023-05-07T19:45:27.583Z,15.10
2023-05-07T19:48:05.695Z,15.00
2023-05-07T19:50:38.003Z,14.90
2023-05-07T19:53:07.112Z,14.80
2023-05-07T19:55:35.563Z,14.80
2023-05-07T19:58:17.502Z,14.70
2023-05-07T20:00:46.583Z,14.50
2023-05-07T20:03:22.494Z,14.50
2023-05-07T20:05:51.849Z,14.60
2023-05-07T20:08:21.899Z,14.80
2023-05-07T20:11:00.667Z,14.90
2023-05-07T20:13:32.759Z,14.80
2023-05-07T20:16:08.086Z,14.70
2023-05-07T20:18:35.578Z,14.70
2023-05-07T20:21:05.533Z,14.70
2023-05-07T20:23:36.781Z,14.70
2023-05-07T20:26:07.728Z,14.70
2023-05-07T20:28:37.514Z,14.70
2023-05-07T20:31:06.974Z,14.70
2023-05-07T20:33:41.082Z,14.60
2023-05-07T20:36:17.699Z,14.60
2023-05-07T20:38:47.518Z,14.60
2023-05-07T20:41:14.904Z,14.60
2023-05-07T20:43:52.510Z,14.50
2023-05-07T20:46:24.003Z,14.50
2023-05-07T20:49:01.547Z,14.40
2023-05-07T20:51:40.177Z,14.30
2023-05-07T20:54:10.401Z,14.30
2023-05-07T20:56:38.331Z,14.40
2023-05-07T20:59:16.871Z,14.40
2023-05-07T21:01:48.290Z,14.50
2023-05-07T21:04:18.464Z,14.60
2023-05-07T21:06:50.864Z,14.80
2023-05-07T21:09:21.402Z,14.90
2023-05-07T21:11:52.834Z,14.90
2023-05-07T21:14:22.513Z,14.90
2023-05-07T21:16:51.732Z,14.60
2023-05-07T21:19:21.541Z,14.50
2023-05-07T21:21:56.704Z,14.40
2023-05-07T21:24:27.395Z,14.30
2023-05-07T21:27:03.525Z,14.30
2023-05-07T21:29:39.167Z,14.40
2023-05-07T21:32:11.486Z,14.50
2023-05-07T21:34:47.016Z,14.60
2023-05-07T21:37:16.445Z,14.40
2023-05-07T21:39:47.129Z,14.40
2023-05-07T21:42:17.121Z,14.60
2023-05-07T21:44:47.260Z,14.60
2023-05-07T21:47:16.083Z,14.60
2023-05-07T21:49:48.638Z,14.50
2023-05-07T21:52:19.495Z,14.40
2023-05-07T21:55:03.002Z,14.20
2023-05-07T21:57:34.120Z,14.20
2023-05-07T22:00:11.683Z,14.10
2023-05-07T22:02:44.347Z,13.90
2023-05-07T22:05:14.920Z,13.80
2023-05-07T22:07:57.165Z,13.80
2023-05-07T22:10:32.436Z,13.60
2023-05-07T22:13:05.479Z,13.60
2023-05-07T22:15:49.626Z,13.50
2023-05-07T22:18:36.846Z,13.50
2023-05-07T22:21:14.534Z,13.50
2023-05-07T22:23:43.311Z,13.30
2023-05-07T22:26:14.841Z,13.40
2023-05-07T22:28:43.479Z,13.40
2023-05-07T22:31:15.131Z,13.30
2023-05-07T22:33:51.720Z,13.20
2023-05-07T22:36:22.196Z,13.10
2023-05-07T22:38:52.850Z,13.00
2023-05-07T22:41:21.701Z,13.00
2023-05-07T22:44:01.692Z,13.00
2023-05-07T22:46:30.164Z,12.90
2023-05-07T22:49:06.152Z,12.90
2023-05-07T22:51:36.260Z,12.80
2023-05-07T22:54:11.668Z,12.80
2023-05-07T22:56:42.134Z,12.70
2023-05-07T22:59:11.122Z,12.70
2023-05-07T23:01:47.440Z,12.60
2023-05-07T23:06:59.064Z,12.50
2023-05-07T23:09:35.708Z,12.50
2023-05-07T23:12:08.297Z,12.50
2023-05-07T23:14:38.230Z,12.40
2023-05-07T23:17:15.115Z,12.20
2023-05-07T23:19:52.310Z,12.20
2023-05-07T23:22:20.696Z,12.10
2023-05-07T23:24:50.003Z,12.10
2023-05-07T23:27:21.306Z,12.00
2023-05-07T23:29:52.303Z,12.00
2023-05-07T23:32:30.434Z,11.90
2023-05-07T23:35:00.344Z,11.80
2023-05-07T23:37:30.223Z,11.70
2023-05-07T23:40:00.188Z,11.80
2023-05-07T23:42:37.122Z,11.70
2023-05-07T23:45:07.409Z,11.60
2023-05-07T23:47:37.810Z,11.70
2023-05-07T23:50:06.063Z,11.50
2023-05-07T23:52:34.292Z,11.50
2023-05-07T23:55:11.955Z,11.50
2023-05-07T23:57:39.248Z,11.60
